sensor_id;sensor_type;location;lat;lon;timestamp;P1;durP1;ratioP1;P2;durP2;ratioP2
19016;SDS011;9641;51.494;6.670;2022-12-18T00:00:59;18.97;;;7.80;;
19016;SDS011;9641;51.494;6.670;2022-12-18T00:03:32;16.67;;;8.63;;
19016;SDS011;9641;51.494;6.670;2022-12-18T00:06:00;16.53;;;9.03;;
19016;SDS011;9641;51.494;6.670;2022-12-18T00:08:28;19.93;;;8.03;;
19016;SDS011;9641;51.494;6.670;2022-12-18T00:10:55;19.47;;;7.77;;
19016;SDS011;9641;51.494;6.670;2022-12-18T00:13:31;13.60;;;6.47;;
19016;SDS011;9641;51.494;6.670;2022-12-18T00:16:01;17.00;;;7.67;;
19016;SDS011;9641;51.494;6.670;2022-12-18T00:18:28;13.07;;;6.67;;
19016;SDS011;9641;51.494;6.670;2022-12-18T00:20:59;12.77;;;7.10;;
19016;SDS011;9641;51.494;6.670;2022-12-18T00:23:29;12.07;;;6.43;;
19016;SDS011;9641;51.494;6.670;2022-12-18T00:25:58;10.00;;;6.33;;
19016;SDS011;9641;51.494;6.670;2022-12-18T00:28:25;13.93;;;7.10;;
19016;SDS011;9641;51.494;6.670;2022-12-18T00:30:58;15.87;;;7.67;;
19016;SDS011;9641;51.494;6.670;2022-12-18T00:33:26;11.80;;;6.53;;
19016;SDS011;9641;51.494;6.670;2022-12-18T00:35:54;12.20;;;6.20;;
19016;SDS011;9641;51.494;6.670;2022-12-18T00:38:28;16.23;;;6.83;;
19016;SDS011;9641;51.494;6.670;2022-12-18T00:40:55;10.93;;;6.80;;
19016;SDS011;9641;51.494;6.670;2022-12-18T00:43:23;17.97;;;7.80;;
19016;SDS011;9641;51.494;6.670;2022-12-18T00:45:49;18.20;;;5.67;;
19016;SDS011;9641;51.494;6.670;2022-12-18T00:48:17;12.30;;;6.40;;
19016;SDS011;9641;51.494;6.670;2022-12-18T00:50:44;14.93;;;6.47;;
19016;SDS011;9641;51.494;6.670;2022-12-18T00:53:11;11.77;;;6.30;;
19016;SDS011;9641;51.494;6.670;2022-12-18T00:55:40;10.63;;;6.17;;
19016;SDS011;9641;51.494;6.670;2022-12-18T00:58:08;17.10;;;6.97;;
19016;SDS011;9641;51.494;6.670;2022-12-18T01:00:35;14.17;;;6.70;;
19016;SDS011;9641;51.494;6.670;2022-12-18T01:03:03;18.03;;;7.50;;
19016;SDS011;9641;51.494;6.670;2022-12-18T01:05:31;13.13;;;6.77;;
19016;SDS011;9641;51.494;6.670;2022-12-18T01:07:59;14.17;;;7.20;;
19016;SDS011;9641;51.494;6.670;2022-12-18T01:10:26;11.13;;;6.77;;
19016;SDS011;9641;51.494;6.670;2022-12-18T01:12:57;12.30;;;6.73;;
19016;SDS011;9641;51.494;6.670;2022-12-18T01:15:37;14.90;;;7.70;;
19016;SDS011;9641;51.494;6.670;2022-12-18T01:18:05;13.83;;;7.23;;
19016;SDS011;9641;51.494;6.670;2022-12-18T01:20:32;16.40;;;6.80;;
19016;SDS011;9641;51.494;6.670;2022-12-18T01:22:59;17.33;;;7.20;;
19016;SDS011;9641;51.494;6.670;2022-12-18T01:25:26;13.70;;;6.77;;
19016;SDS011;9641;51.494;6.670;2022-12-18T01:27:53;16.50;;;6.60;;
19016;SDS011;9641;51.494;6.670;2022-12-18T01:30:22;15.73;;;6.90;;
19016;SDS011;9641;51.494;6.670;2022-12-18T01:32:51;15.53;;;6.63;;
19016;SDS011;9641;51.494;6.670;2022-12-18T01:35:18;16.83;;;7.20;;
19016;SDS011;9641;51.494;6.670;2022-12-18T01:37:46;17.63;;;7.20;;
19016;SDS011;9641;51.494;6.670;2022-12-18T01:40:13;11.63;;;7.17;;
19016;SDS011;9641;51.494;6.670;2022-12-18T01:42:42;14.27;;;6.23;;
19016;SDS011;9641;51.494;6.670;2022-12-18T01:45:25;16.30;;;6.87;;
19016;SDS011;9641;51.494;6.670;2022-12-18T01:47:54;9.80;;;6.53;;
19016;SDS011;9641;51.494;6.670;2022-12-18T01:50:23;16.73;;;6.43;;
19016;SDS011;9641;51.494;6.670;2022-12-18T01:52:54;15.63;;;7.20;;
19016;SDS011;9641;51.494;6.670;2022-12-18T01:55:25;12.60;;;6.03;;
19016;SDS011;9641;51.494;6.670;2022-12-18T01:57:55;9.53;;;6.13;;
19016;SDS011;9641;51.494;6.670;2022-12-18T02:00:26;14.03;;;6.43;;
19016;SDS011;9641;51.494;6.670;2022-12-18T02:02:54;12.80;;;6.47;;
19016;SDS011;9641;51.494;6.670;2022-12-18T02:05:23;16.97;;;7.00;;
19016;SDS011;9641;51.494;6.670;2022-12-18T02:08:00;9.03;;;6.10;;
19016;SDS011;9641;51.494;6.670;2022-12-18T02:10:34;15.40;;;6.83;;
19016;SDS011;9641;51.494;6.670;2022-12-18T02:13:09;11.20;;;5.70;;
19016;SDS011;9641;51.494;6.670;2022-12-18T02:15:43;12.97;;;6.50;;
19016;SDS011;9641;51.494;6.670;2022-12-18T02:18:22;15.40;;;6.77;;
19016;SDS011;9641;51.494;6.670;2022-12-18T02:20:54;20.57;;;7.77;;
19016;SDS011;9641;51.494;6.670;2022-12-18T02:23:30;13.50;;;7.13;;
19016;SDS011;9641;51.494;6.670;2022-12-18T02:26:12;16.33;;;7.23;;
19016;SDS011;9641;51.494;6.670;2022-12-18T02:28:44;13.70;;;7.03;;
19016;SDS011;9641;51.494;6.670;2022-12-18T02:31:14;13.73;;;7.43;;
19016;SDS011;9641;51.494;6.670;2022-12-18T02:33:47;11.73;;;6.50;;
19016;SDS011;9641;51.494;6.670;2022-12-18T02:36:17;14.20;;;6.43;;
19016;SDS011;9641;51.494;6.670;2022-12-18T02:38:48;12.27;;;6.27;;
19016;SDS011;9641;51.494;6.670;2022-12-18T02:41:19;11.33;;;6.03;;
19016;SDS011;9641;51.494;6.670;2022-12-18T02:43:53;16.33;;;7.03;;
19016;SDS011;9641;51.494;6.670;2022-12-18T02:46:25;13.77;;;6.93;;
19016;SDS011;9641;51.494;6.670;2022-12-18T02:48:58;12.33;;;6.60;;
19016;SDS011;9641;51.494;6.670;2022-12-18T02:51:33;13.20;;;6.00;;
19016;SDS011;9641;51.494;6.670;2022-12-18T02:54:08;16.20;;;7.13;;
19016;SDS011;9641;51.494;6.670;2022-12-18T02:56:43;13.23;;;6.37;;
19016;SDS011;9641;51.494;6.670;2022-12-18T02:59:16;12.93;;;6.17;;
19016;SDS011;9641;51.494;6.670;2022-12-18T03:01:54;14.03;;;6.17;;
19016;SDS011;9641;51.494;6.670;2022-12-18T03:04:26;12.87;;;6.20;;
19016;SDS011;9641;51.494;6.670;2022-12-18T03:06:57;12.50;;;6.67;;
19016;SDS011;9641;51.494;6.670;2022-12-18T03:09:31;11.23;;;5.90;;
19016;SDS011;9641;51.494;6.670;2022-12-18T03:12:04;12.77;;;6.93;;
19016;SDS011;9641;51.494;6.670;2022-12-18T03:14:49;15.33;;;6.37;;
19016;SDS011;9641;51.494;6.670;2022-12-18T03:17:20;13.10;;;6.33;;
19016;SDS011;9641;51.494;6.670;2022-12-18T03:19:51;12.73;;;6.37;;
19016;SDS011;9641;51.494;6.670;2022-12-18T03:22:22;13.10;;;7.20;;
19016;SDS011;9641;51.494;6.670;2022-12-18T03:24:53;15.40;;;6.67;;
19016;SDS011;9641;51.494;6.670;2022-12-18T03:27:24;13.63;;;6.80;;
19016;SDS011;9641;51.494;6.670;2022-12-18T03:29:56;13.33;;;6.57;;
19016;SDS011;9641;51.494;6.670;2022-12-18T03:32:35;17.17;;;7.00;;
19016;SDS011;9641;51.494;6.670;2022-12-18T03:35:07;16.20;;;6.93;;
19016;SDS011;9641;51.494;6.670;2022-12-18T03:37:36;13.13;;;7.67;;
19016;SDS011;9641;51.494;6.670;2022-12-18T03:40:04;15.00;;;6.90;;
19016;SDS011;9641;51.494;6.670;2022-12-18T03:42:37;17.67;;;7.17;;
19016;SDS011;9641;51.494;6.670;2022-12-18T03:45:11;12.03;;;6.73;;
19016;SDS011;9641;51.494;6.670;2022-12-18T03:47:44;13.17;;;6.63;;
19016;SDS011;9641;51.494;6.670;2022-12-18T03:50:26;16.10;;;7.23;;
19016;SDS011;9641;51.494;6.670;2022-12-18T03:53:02;11.47;;;6.17;;
19016;SDS011;9641;51.494;6.670;2022-12-18T03:55:36;15.40;;;7.47;;
19016;SDS011;9641;51.494;6.670;2022-12-18T03:58:08;14.93;;;6.70;;
19016;SDS011;9641;51.494;6.670;2022-12-18T04:00:49;11.90;;;6.73;;
19016;SDS011;9641;51.494;6.670;2022-12-18T04:03:19;15.53;;;7.17;;
19016;SDS011;9641;51.494;6.670;2022-12-18T04:05:48;15.03;;;6.33;;
19016;SDS011;9641;51.494;6.670;2022-12-18T04:08:21;13.40;;;6.57;;
19016;SDS011;9641;51.494;6.670;2022-12-18T04:10:59;14.93;;;7.73;;
19016;SDS011;9641;51.494;6.670;2022-12-18T04:13:29;12.93;;;6.67;;
19016;SDS011;9641;51.494;6.670;2022-12-18T04:16:00;14.73;;;6.80;;
19016;SDS011;9641;51.494;6.670;2022-12-18T04:18:27;12.60;;;5.77;;
19016;SDS011;9641;51.494;6.670;2022-12-18T04:20:54;14.60;;;7.10;;
19016;SDS011;9641;51.494;6.670;2022-12-18T04:23:21;13.10;;;6.20;;
19016;SDS011;9641;51.494;6.670;2022-12-18T04:25:49;15.60;;;6.10;;
19016;SDS011;9641;51.494;6.670;2022-12-18T04:28:25;10.37;;;6.10;;
19016;SDS011;9641;51.494;6.670;2022-12-18T04:30:54;21.53;;;7.03;;
19016;SDS011;9641;51.494;6.670;2022-12-18T04:33:21;14.03;;;6.77;;
19016;SDS011;9641;51.494;6.670;2022-12-18T04:35:48;16.33;;;7.67;;
19016;SDS011;9641;51.494;6.670;2022-12-18T04:38:16;11.60;;;6.87;;
19016;SDS011;9641;51.494;6.670;2022-12-18T04:40:46;8.73;;;5.53;;
19016;SDS011;9641;51.494;6.670;2022-12-18T04:43:20;12.87;;;6.40;;
19016;SDS011;9641;51.494;6.670;2022-12-18T04:45:47;10.60;;;5.93;;
19016;SDS011;9641;51.494;6.670;2022-12-18T04:48:15;10.33;;;6.47;;
19016;SDS011;9641;51.494;6.670;2022-12-18T04:50:43;12.77;;;6.13;;
19016;SDS011;9641;51.494;6.670;2022-12-18T04:53:09;9.33;;;6.00;;
19016;SDS011;9641;51.494;6.670;2022-12-18T04:55:36;15.57;;;5.77;;
19016;SDS011;9641;51.494;6.670;2022-12-18T04:58:03;9.27;;;5.63;;
19016;SDS011;9641;51.494;6.670;2022-12-18T05:00:30;10.53;;;5.73;;
19016;SDS011;9641;51.494;6.670;2022-12-18T05:02:57;9.53;;;5.83;;
19016;SDS011;9641;51.494;6.670;2022-12-18T05:05:28;11.57;;;5.87;;
19016;SDS011;9641;51.494;6.670;2022-12-18T05:07:55;12.00;;;5.57;;
19016;SDS011;9641;51.494;6.670;2022-12-18T05:10:22;10.77;;;5.87;;
19016;SDS011;9641;51.494;6.670;2022-12-18T05:12:49;15.57;;;6.33;;
19016;SDS011;9641;51.494;6.670;2022-12-18T05:15:26;8.37;;;5.50;;
19016;SDS011;9641;51.494;6.670;2022-12-18T05:17:55;11.23;;;5.77;;
19016;SDS011;9641;51.494;6.670;2022-12-18T05:20:22;9.57;;;5.80;;
19016;SDS011;9641;51.494;6.670;2022-12-18T05:22:51;13.77;;;5.77;;
19016;SDS011;9641;51.494;6.670;2022-12-18T05:25:18;13.17;;;5.50;;
19016;SDS011;9641;51.494;6.670;2022-12-18T05:27:46;10.73;;;5.43;;
19016;SDS011;9641;51.494;6.670;2022-12-18T05:30:14;12.83;;;5.87;;
19016;SDS011;9641;51.494;6.670;2022-12-18T05:32:41;9.00;;;5.13;;
19016;SDS011;9641;51.494;6.670;2022-12-18T05:35:09;10.37;;;5.67;;
19016;SDS011;9641;51.494;6.670;2022-12-18T05:37:37;8.70;;;4.97;;
19016;SDS011;9641;51.494;6.670;2022-12-18T05:40:06;11.10;;;5.57;;
19016;SDS011;9641;51.494;6.670;2022-12-18T05:42:34;12.87;;;5.87;;
19016;SDS011;9641;51.494;6.670;2022-12-18T05:45:01;9.67;;;5.20;;
19016;SDS011;9641;51.494;6.670;2022-12-18T05:47:28;9.13;;;5.03;;
19016;SDS011;9641;51.494;6.670;2022-12-18T05:49:55;9.97;;;4.97;;
19016;SDS011;9641;51.494;6.670;2022-12-18T05:52:22;9.03;;;4.60;;
19016;SDS011;9641;51.494;6.670;2022-12-18T05:54:49;10.93;;;5.63;;
19016;SDS011;9641;51.494;6.670;2022-12-18T05:57:19;10.70;;;5.27;;
19016;SDS011;9641;51.494;6.670;2022-12-18T05:59:46;10.67;;;5.07;;
19016;SDS011;9641;51.494;6.670;2022-12-18T06:02:13;11.97;;;5.30;;
19016;SDS011;9641;51.494;6.670;2022-12-18T06:04:40;8.00;;;4.93;;
19016;SDS011;9641;51.494;6.670;2022-12-18T06:07:07;9.57;;;4.63;;
19016;SDS011;9641;51.494;6.670;2022-12-18T06:09:34;8.50;;;5.53;;
19016;SDS011;9641;51.494;6.670;2022-12-18T06:12:00;11.83;;;5.20;;
19016;SDS011;9641;51.494;6.670;2022-12-18T06:14:29;10.30;;;4.93;;
19016;SDS011;9641;51.494;6.670;2022-12-18T06:16:56;8.73;;;4.97;;
19016;SDS011;9641;51.494;6.670;2022-12-18T06:19:23;9.07;;;4.57;;
19016;SDS011;9641;51.494;6.670;2022-12-18T06:21:50;6.07;;;4.60;;
19016;SDS011;9641;51.494;6.670;2022-12-18T06:24:17;10.03;;;4.33;;
19016;SDS011;9641;51.494;6.670;2022-12-18T06:26:44;10.40;;;5.13;;
19016;SDS011;9641;51.494;6.670;2022-12-18T06:29:11;7.90;;;5.27;;
19016;SDS011;9641;51.494;6.670;2022-12-18T06:31:39;9.47;;;5.13;;
19016;SDS011;9641;51.494;6.670;2022-12-18T06:34:06;10.60;;;5.40;;
19016;SDS011;9641;51.494;6.670;2022-12-18T06:36:33;9.77;;;5.60;;
19016;SDS011;9641;51.494;6.670;2022-12-18T06:39:00;15.67;;;7.07;;
19016;SDS011;9641;51.494;6.670;2022-12-18T06:41:27;13.57;;;7.13;;
19016;SDS011;9641;51.494;6.670;2022-12-18T06:43:55;15.20;;;8.10;;
19016;SDS011;9641;51.494;6.670;2022-12-18T06:46:23;17.23;;;8.43;;
19016;SDS011;9641;51.494;6.670;2022-12-18T06:48:53;16.43;;;7.00;;
19016;SDS011;9641;51.494;6.670;2022-12-18T06:51:20;12.30;;;6.03;;
19016;SDS011;9641;51.494;6.670;2022-12-18T06:53:48;11.57;;;5.63;;
19016;SDS011;9641;51.494;6.670;2022-12-18T06:56:16;8.00;;;5.23;;
19016;SDS011;9641;51.494;6.670;2022-12-18T06:58:43;8.63;;;5.23;;
19016;SDS011;9641;51.494;6.670;2022-12-18T07:01:10;7.53;;;4.57;;
19016;SDS011;9641;51.494;6.670;2022-12-18T07:03:39;11.80;;;5.17;;
19016;SDS011;9641;51.494;6.670;2022-12-18T07:06:14;8.73;;;5.63;;
19016;SDS011;9641;51.494;6.670;2022-12-18T07:08:42;9.67;;;5.23;;
19016;SDS011;9641;51.494;6.670;2022-12-18T07:11:09;9.80;;;5.43;;
19016;SDS011;9641;51.494;6.670;2022-12-18T07:13:36;9.87;;;5.43;;
19016;SDS011;9641;51.494;6.670;2022-12-18T07:16:11;13.27;;;5.50;;
19016;SDS011;9641;51.494;6.670;2022-12-18T07:18:39;12.97;;;6.20;;
19016;SDS011;9641;51.494;6.670;2022-12-18T07:21:07;10.43;;;5.47;;
19016;SDS011;9641;51.494;6.670;2022-12-18T07:23:38;11.00;;;6.27;;
19016;SDS011;9641;51.494;6.670;2022-12-18T07:26:06;12.17;;;5.70;;
19016;SDS011;9641;51.494;6.670;2022-12-18T07:28:37;8.83;;;5.40;;
19016;SDS011;9641;51.494;6.670;2022-12-18T07:31:05;9.40;;;5.20;;
19016;SDS011;9641;51.494;6.670;2022-12-18T07:33:32;7.73;;;4.37;;
19016;SDS011;9641;51.494;6.670;2022-12-18T07:36:00;11.60;;;6.03;;
19016;SDS011;9641;51.494;6.670;2022-12-18T07:38:29;9.80;;;5.80;;
19016;SDS011;9641;51.494;6.670;2022-12-18T07:41:01;12.57;;;6.50;;
19016;SDS011;9641;51.494;6.670;2022-12-18T07:43:28;11.27;;;5.63;;
19016;SDS011;9641;51.494;6.670;2022-12-18T07:45:55;10.03;;;5.60;;
19016;SDS011;9641;51.494;6.670;2022-12-18T07:48:24;10.03;;;5.77;;
19016;SDS011;9641;51.494;6.670;2022-12-18T07:50:57;9.03;;;5.53;;
19016;SDS011;9641;51.494;6.670;2022-12-18T07:53:25;15.07;;;6.63;;
19016;SDS011;9641;51.494;6.670;2022-12-18T07:55:54;11.70;;;5.80;;
19016;SDS011;9641;51.494;6.670;2022-12-18T07:58:24;11.00;;;5.43;;
19016;SDS011;9641;51.494;6.670;2022-12-18T08:00:51;8.97;;;5.27;;
19016;SDS011;9641;51.494;6.670;2022-12-18T08:03:20;11.23;;;5.57;;
19016;SDS011;9641;51.494;6.670;2022-12-18T08:05:46;9.53;;;5.67;;
19016;SDS011;9641;51.494;6.670;2022-12-18T08:08:15;13.27;;;5.43;;
19016;SDS011;9641;51.494;6.670;2022-12-18T08:10:43;12.10;;;6.20;;
19016;SDS011;9641;51.494;6.670;2022-12-18T08:13:10;12.20;;;6.13;;
19016;SDS011;9641;51.494;6.670;2022-12-18T08:15:39;10.20;;;5.87;;
19016;SDS011;9641;51.494;6.670;2022-12-18T08:18:06;14.57;;;6.43;;
19016;SDS011;9641;51.494;6.670;2022-12-18T08:20:34;9.80;;;5.57;;
19016;SDS011;9641;51.494;6.670;2022-12-18T08:23:07;12.20;;;5.97;;
19016;SDS011;9641;51.494;6.670;2022-12-18T08:25:34;11.83;;;6.00;;
19016;SDS011;9641;51.494;6.670;2022-12-18T08:28:01;8.03;;;5.00;;
19016;SDS011;9641;51.494;6.670;2022-12-18T08:30:29;10.20;;;5.67;;
19016;SDS011;9641;51.494;6.670;2022-12-18T08:32:58;10.17;;;6.03;;
19016;SDS011;9641;51.494;6.670;2022-12-18T08:35:25;11.30;;;5.97;;
19016;SDS011;9641;51.494;6.670;2022-12-18T08:37:52;10.87;;;6.00;;
19016;SDS011;9641;51.494;6.670;2022-12-18T08:40:19;9.10;;;5.07;;
19016;SDS011;9641;51.494;6.670;2022-12-18T08:42:47;9.13;;;5.07;;
19016;SDS011;9641;51.494;6.670;2022-12-18T08:45:31;10.57;;;5.43;;
19016;SDS011;9641;51.494;6.670;2022-12-18T08:48:01;10.27;;;6.13;;
19016;SDS011;9641;51.494;6.670;2022-12-18T08:50:29;7.20;;;4.90;;
19016;SDS011;9641;51.494;6.670;2022-12-18T08:52:57;13.27;;;5.80;;
19016;SDS011;9641;51.494;6.670;2022-12-18T08:55:26;12.97;;;5.33;;
19016;SDS011;9641;51.494;6.670;2022-12-18T08:57:55;14.17;;;5.60;;
19016;SDS011;9641;51.494;6.670;2022-12-18T09:06:00;11.67;;;5.70;;
19016;SDS011;9641;51.494;6.670;2022-12-18T09:08:42;9.07;;;5.23;;
19016;SDS011;9641;51.494;6.670;2022-12-18T09:11:30;8.97;;;5.73;;
19016;SDS011;9641;51.494;6.670;2022-12-18T09:14:12;11.17;;;6.17;;
19016;SDS011;9641;51.494;6.670;2022-12-18T09:16:59;10.33;;;5.73;;
19016;SDS011;9641;51.494;6.670;2022-12-18T09:19:30;10.83;;;6.07;;
19016;SDS011;9641;51.494;6.670;2022-12-18T09:21:57;12.10;;;5.17;;
19016;SDS011;9641;51.494;6.670;2022-12-18T09:24:24;11.63;;;6.33;;
19016;SDS011;9641;51.494;6.670;2022-12-18T09:26:54;11.17;;;6.00;;
19016;SDS011;9641;51.494;6.670;2022-12-18T09:29:24;10.10;;;5.57;;
19016;SDS011;9641;51.494;6.670;2022-12-18T09:31:55;11.40;;;5.47;;
19016;SDS011;9641;51.494;6.670;2022-12-18T09:34:39;9.17;;;4.73;;
19016;SDS011;9641;51.494;6.670;2022-12-18T09:37:06;9.10;;;5.70;;
19016;SDS011;9641;51.494;6.670;2022-12-18T09:39:41;10.90;;;5.67;;
19016;SDS011;9641;51.494;6.670;2022-12-18T09:42:09;9.33;;;5.63;;
19016;SDS011;9641;51.494;6.670;2022-12-18T09:44:55;10.07;;;5.57;;
19016;SDS011;9641;51.494;6.670;2022-12-18T09:47:25;8.90;;;5.33;;
19016;SDS011;9641;51.494;6.670;2022-12-18T09:53:19;11.77;;;5.80;;
19016;SDS011;9641;51.494;6.670;2022-12-18T09:56:01;9.37;;;5.67;;
19016;SDS011;9641;51.494;6.670;2022-12-18T09:58:34;9.30;;;5.50;;
19016;SDS011;9641;51.494;6.670;2022-12-18T10:01:11;7.57;;;4.70;;
19016;SDS011;9641;51.494;6.670;2022-12-18T10:03:44;9.13;;;5.47;;
19016;SDS011;9641;51.494;6.670;2022-12-18T10:06:20;9.70;;;5.23;;
19016;SDS011;9641;51.494;6.670;2022-12-18T10:09:03;9.90;;;5.67;;
19016;SDS011;9641;51.494;6.670;2022-12-18T10:11:40;12.80;;;6.03;;
19016;SDS011;9641;51.494;6.670;2022-12-18T10:14:15;11.23;;;5.50;;
19016;SDS011;9641;51.494;6.670;2022-12-18T10:16:57;8.67;;;5.87;;
19016;SDS011;9641;51.494;6.670;2022-12-18T10:19:35;9.23;;;5.03;;
19016;SDS011;9641;51.494;6.670;2022-12-18T10:22:14;8.97;;;5.37;;
19016;SDS011;9641;51.494;6.670;2022-12-18T10:24:51;11.27;;;6.10;;
19016;SDS011;9641;51.494;6.670;2022-12-18T10:27:24;10.73;;;5.50;;
19016;SDS011;9641;51.494;6.670;2022-12-18T10:29:53;8.53;;;5.73;;
19016;SDS011;9641;51.494;6.670;2022-12-18T10:32:21;13.20;;;6.53;;
19016;SDS011;9641;51.494;6.670;2022-12-18T10:34:50;11.83;;;5.77;;
19016;SDS011;9641;51.494;6.670;2022-12-18T10:37:21;15.10;;;6.13;;
19016;SDS011;9641;51.494;6.670;2022-12-18T10:40:06;13.00;;;7.60;;
19016;SDS011;9641;51.494;6.670;2022-12-18T10:42:44;12.20;;;5.97;;
19016;SDS011;9641;51.494;6.670;2022-12-18T10:45:16;9.50;;;5.53;;
19016;SDS011;9641;51.494;6.670;2022-12-18T10:47:44;12.87;;;5.80;;
19016;SDS011;9641;51.494;6.670;2022-12-18T10:50:23;12.03;;;5.70;;
19016;SDS011;9641;51.494;6.670;2022-12-18T10:52:57;11.07;;;6.40;;
19016;SDS011;9641;51.494;6.670;2022-12-18T10:55:30;11.00;;;5.80;;
19016;SDS011;9641;51.494;6.670;2022-12-18T10:58:13;12.13;;;5.77;;
19016;SDS011;9641;51.494;6.670;2022-12-18T11:00:46;9.43;;;5.17;;
19016;SDS011;9641;51.494;6.670;2022-12-18T11:03:31;11.30;;;6.03;;
19016;SDS011;9641;51.494;6.670;2022-12-18T11:06:12;9.60;;;5.83;;
19016;SDS011;9641;51.494;6.670;2022-12-18T11:08:46;11.73;;;5.63;;
19016;SDS011;9641;51.494;6.670;2022-12-18T11:11:29;11.10;;;5.97;;
19016;SDS011;9641;51.494;6.670;2022-12-18T11:14:00;13.20;;;6.03;;
19016;SDS011;9641;51.494;6.670;2022-12-18T11:16:34;10.20;;;5.33;;
19016;SDS011;9641;51.494;6.670;2022-12-18T11:19:33;12.17;;;6.23;;
19016;SDS011;9641;51.494;6.670;2022-12-18T11:22:17;10.70;;;5.60;;
19016;SDS011;9641;51.494;6.670;2022-12-18T11:25:01;10.33;;;6.43;;
19016;SDS011;9641;51.494;6.670;2022-12-18T11:27:32;12.20;;;7.23;;
19016;SDS011;9641;51.494;6.670;2022-12-18T11:30:07;11.20;;;5.83;;
19016;SDS011;9641;51.494;6.670;2022-12-18T11:32:37;12.67;;;6.10;;
19016;SDS011;9641;51.494;6.670;2022-12-18T11:35:13;12.40;;;6.50;;
19016;SDS011;9641;51.494;6.670;2022-12-18T11:37:46;10.87;;;6.27;;
19016;SDS011;9641;51.494;6.670;2022-12-18T11:40:30;17.70;;;7.93;;
19016;SDS011;9641;51.494;6.670;2022-12-18T11:43:02;11.00;;;5.83;;
19016;SDS011;9641;51.494;6.670;2022-12-18T11:45:35;12.83;;;6.23;;
19016;SDS011;9641;51.494;6.670;2022-12-18T11:48:12;9.07;;;5.93;;
19016;SDS011;9641;51.494;6.670;2022-12-18T11:50:47;11.77;;;6.37;;
19016;SDS011;9641;51.494;6.670;2022-12-18T11:53:18;14.07;;;6.40;;
19016;SDS011;9641;51.494;6.670;2022-12-18T11:56:17;12.57;;;6.80;;
19016;SDS011;9641;51.494;6.670;2022-12-18T11:59:05;14.10;;;6.83;;
19016;SDS011;9641;51.494;6.670;2022-12-18T12:02:01;10.10;;;5.70;;
19016;SDS011;9641;51.494;6.670;2022-12-18T12:07:46;11.60;;;6.50;;
19016;SDS011;9641;51.494;6.670;2022-12-18T12:10:24;14.67;;;5.87;;
19016;SDS011;9641;51.494;6.670;2022-12-18T12:13:09;13.83;;;6.57;;
19016;SDS011;9641;51.494;6.670;2022-12-18T12:15:55;11.23;;;6.60;;
19016;SDS011;9641;51.494;6.670;2022-12-18T12:18:31;15.23;;;7.87;;
19016;SDS011;9641;51.494;6.670;2022-12-18T12:21:08;14.70;;;8.27;;
19016;SDS011;9641;51.494;6.670;2022-12-18T12:23:42;14.77;;;6.37;;
19016;SDS011;9641;51.494;6.670;2022-12-18T12:26:19;13.17;;;6.40;;
19016;SDS011;9641;51.494;6.670;2022-12-18T12:31:59;14.87;;;7.27;;
19016;SDS011;9641;51.494;6.670;2022-12-18T12:34:38;13.13;;;6.40;;
19016;SDS011;9641;51.494;6.670;2022-12-18T12:37:18;11.53;;;6.57;;
19016;SDS011;9641;51.494;6.670;2022-12-18T12:39:51;15.30;;;8.47;;
19016;SDS011;9641;51.494;6.670;2022-12-18T12:42:23;15.63;;;8.53;;
19016;SDS011;9641;51.494;6.670;2022-12-18T12:45:28;16.80;;;8.80;;
19016;SDS011;9641;51.494;6.670;2022-12-18T12:48:00;12.33;;;7.80;;
19016;SDS011;9641;51.494;6.670;2022-12-18T12:50:28;12.83;;;6.63;;
19016;SDS011;9641;51.494;6.670;2022-12-18T12:53:05;13.20;;;6.57;;
19016;SDS011;9641;51.494;6.670;2022-12-18T12:55:36;12.97;;;7.23;;
19016;SDS011;9641;51.494;6.670;2022-12-18T12:58:06;17.10;;;7.10;;
19016;SDS011;9641;51.494;6.670;2022-12-18T13:00:44;12.90;;;7.73;;
19016;SDS011;9641;51.494;6.670;2022-12-18T13:03:21;14.33;;;7.40;;
19016;SDS011;9641;51.494;6.670;2022-12-18T13:05:59;16.10;;;7.70;;
19016;SDS011;9641;51.494;6.670;2022-12-18T13:08:50;14.53;;;6.80;;
19016;SDS011;9641;51.494;6.670;2022-12-18T13:11:28;15.73;;;7.67;;
19016;SDS011;9641;51.494;6.670;2022-12-18T13:14:24;15.00;;;7.30;;
19016;SDS011;9641;51.494;6.670;2022-12-18T13:17:21;13.90;;;7.47;;
19016;SDS011;9641;51.494;6.670;2022-12-18T13:20:06;14.80;;;7.60;;
19016;SDS011;9641;51.494;6.670;2022-12-18T13:22:36;12.93;;;6.80;;
19016;SDS011;9641;51.494;6.670;2022-12-18T13:28:04;13.83;;;7.40;;
19016;SDS011;9641;51.494;6.670;2022-12-18T13:30:42;16.47;;;8.10;;
19016;SDS011;9641;51.494;6.670;2022-12-18T13:36:14;16.13;;;7.70;;
19016;SDS011;9641;51.494;6.670;2022-12-18T13:45:40;14.30;;;7.50;;
19016;SDS011;9641;51.494;6.670;2022-12-18T13:48:21;14.93;;;7.87;;
19016;SDS011;9641;51.494;6.670;2022-12-18T13:50:51;16.00;;;7.73;;
19016;SDS011;9641;51.494;6.670;2022-12-18T13:53:23;16.83;;;8.37;;
19016;SDS011;9641;51.494;6.670;2022-12-18T13:55:52;13.93;;;7.40;;
19016;SDS011;9641;51.494;6.670;2022-12-18T13:58:20;14.50;;;8.23;;
19016;SDS011;9641;51.494;6.670;2022-12-18T14:00:47;15.93;;;8.07;;
19016;SDS011;9641;51.494;6.670;2022-12-18T14:03:19;16.80;;;8.83;;
19016;SDS011;9641;51.494;6.670;2022-12-18T14:06:00;16.03;;;9.17;;
19016;SDS011;9641;51.494;6.670;2022-12-18T14:08:36;15.63;;;8.53;;
19016;SDS011;9641;51.494;6.670;2022-12-18T14:11:07;16.47;;;8.53;;
19016;SDS011;9641;51.494;6.670;2022-12-18T14:13:46;17.67;;;8.57;;
19016;SDS011;9641;51.494;6.670;2022-12-18T14:16:14;16.23;;;8.67;;
19016;SDS011;9641;51.494;6.670;2022-12-18T14:18:44;23.57;;;8.50;;
19016;SDS011;9641;51.494;6.670;2022-12-18T14:21:24;18.87;;;8.97;;
19016;SDS011;9641;51.494;6.670;2022-12-18T14:24:05;20.93;;;9.13;;
19016;SDS011;9641;51.494;6.670;2022-12-18T14:26:39;21.63;;;8.73;;
19016;SDS011;9641;51.494;6.670;2022-12-18T14:32:13;17.73;;;9.33;;
19016;SDS011;9641;51.494;6.670;2022-12-18T14:34:45;16.20;;;8.47;;
19016;SDS011;9641;51.494;6.670;2022-12-18T14:37:22;19.67;;;9.47;;
19016;SDS011;9641;51.494;6.670;2022-12-18T14:39:53;22.07;;;9.60;;
19016;SDS011;9641;51.494;6.670;2022-12-18T14:42:24;17.57;;;8.43;;
19016;SDS011;9641;51.494;6.670;2022-12-18T14:48:00;18.03;;;9.50;;
19016;SDS011;9641;51.494;6.670;2022-12-18T14:50:33;21.27;;;9.67;;
19016;SDS011;9641;51.494;6.670;2022-12-18T14:53:04;21.47;;;10.30;;
19016;SDS011;9641;51.494;6.670;2022-12-18T14:55:32;20.23;;;10.00;;
19016;SDS011;9641;51.494;6.670;2022-12-18T14:58:03;24.43;;;10.80;;
19016;SDS011;9641;51.494;6.670;2022-12-18T15:00:44;27.17;;;10.47;;
19016;SDS011;9641;51.494;6.670;2022-12-18T15:03:13;21.40;;;9.90;;
19016;SDS011;9641;51.494;6.670;2022-12-18T15:06:15;20.43;;;9.27;;
19016;SDS011;9641;51.494;6.670;2022-12-18T15:08:47;19.87;;;9.70;;
19016;SDS011;9641;51.494;6.670;2022-12-18T15:11:25;23.07;;;9.97;;
19016;SDS011;9641;51.494;6.670;2022-12-18T15:17:00;21.57;;;10.47;;
19016;SDS011;9641;51.494;6.670;2022-12-18T15:19:35;19.20;;;9.23;;
19016;SDS011;9641;51.494;6.670;2022-12-18T15:24:58;22.13;;;10.33;;
19016;SDS011;9641;51.494;6.670;2022-12-18T15:27:28;19.93;;;10.07;;
19016;SDS011;9641;51.494;6.670;2022-12-18T15:30:01;24.00;;;10.47;;
19016;SDS011;9641;51.494;6.670;2022-12-18T15:32:55;22.57;;;10.00;;
19016;SDS011;9641;51.494;6.670;2022-12-18T15:35:43;19.70;;;9.40;;
19016;SDS011;9641;51.494;6.670;2022-12-18T15:38:10;24.73;;;10.83;;
19016;SDS011;9641;51.494;6.670;2022-12-18T15:40:40;22.23;;;10.70;;
19016;SDS011;9641;51.494;6.670;2022-12-18T15:43:09;20.07;;;9.43;;
19016;SDS011;9641;51.494;6.670;2022-12-18T15:45:54;22.17;;;9.63;;
19016;SDS011;9641;51.494;6.670;2022-12-18T15:48:21;20.90;;;10.23;;
19016;SDS011;9641;51.494;6.670;2022-12-18T15:50:49;24.60;;;10.57;;
19016;SDS011;9641;51.494;6.670;2022-12-18T15:53:19;19.77;;;10.47;;
19016;SDS011;9641;51.494;6.670;2022-12-18T15:55:49;30.27;;;10.87;;
19016;SDS011;9641;51.494;6.670;2022-12-18T15:58:36;26.57;;;11.33;;
19016;SDS011;9641;51.494;6.670;2022-12-18T16:01:03;23.30;;;10.97;;